Time;durP1;ratioP1;P1;durP2;ratioP2;P2;SDS_P1;SDS_P2;PMS_P1;PMS_P2;Temp;Humidity;BMP_temperature;BMP_pressure;BME280_temperature;BME280_humidity;BME280_pressure;Samples;Min_cycle;Max_cycle;Signal;HPM_P1;HPM_P2
2021/03/03 00:02:03;;;;;;;;;;;;;;;;;;;;;
2021/03/03 00:04:31;;;;;;;7.45;6.30;;;;;;;7.22;61.67;101574.00;6202398;23;20032;-73
2021/03/03 00:06:57;;;;;;;9.07;6.03;;;;;;;7.20;61.74;101581.53;6226596;23;20120;-71
2021/03/03 00:09:22;;;;;;;10.95;5.80;;;;;;;7.14;61.81;101570.47;6193882;23;20032;-72
2021/03/03 00:11:48;;;;;;;18.88;10.10;;;;;;;7.17;62.38;101566.50;6199438;23;20015;-72
2021/03/03 00:14:13;;;;;;;17.85;9.60;;;;;;;7.14;62.37;101558.75;6200712;23;20028;-73
2021/03/03 00:16:41;;;;;;;14.23;7.72;;;;;;;7.07;62.02;101552.53;6199259;23;20001;-75
2021/03/03 00:19:07;;;;;;;9.88;7.05;;;;;;;7.14;62.02;101554.16;6176790;23;20012;-72
2021/03/03 00:21:32;;;;;;;15.10;8.48;;;;;;;7.12;61.91;101558.97;6198266;23;20423;-74
2021/03/03 00:23:58;;;;;;;10.18;7.07;;;;;;;7.11;62.17;101554.59;6226029;23;20008;-74
2021/03/03 00:26:23;;;;;;;14.60;8.30;;;;;;;7.11;62.25;101570.06;6200443;23;20008;-74
2021/03/03 00:28:49;;;;;;;11.90;7.28;;;;;;;7.07;62.39;101558.78;6198996;23;20012;-73
2021/03/03 00:31:14;;;;;;;14.05;9.18;;;;;;;7.05;62.23;101555.44;6223338;23;20086;-74
2021/03/03 00:33:45;;;;;;;7.47;6.72;;;;;;;7.09;62.51;101566.72;6197568;23;20060;-75
2021/03/03 00:36:11;;;;;;;8.18;6.10;;;;;;;7.09;62.19;101567.56;6225090;23;20009;-72
2021/03/03 00:38:36;;;;;;;6.00;5.28;;;;;;;7.06;62.46;101561.72;6227090;23;20420;-74
2021/03/03 00:41:05;;;;;;;5.95;5.13;;;;;;;7.10;62.44;101560.25;6195920;23;20335;-73
2021/03/03 00:43:31;;;;;;;3.88;3.58;;;;;;;7.14;62.19;101567.75;6200263;23;20091;-74
2021/03/03 00:45:56;;;;;;;4.20;3.85;;;;;;;7.18;62.27;101564.59;6223882;23;20007;-73
2021/03/03 00:48:22;;;;;;;4.60;4.22;;;;;;;7.19;62.15;101566.28;6227623;23;20004;-74
2021/03/03 00:50:47;;;;;;;7.93;5.65;;;;;;;7.21;62.01;101564.16;6200310;23;20012;-74
2021/03/03 00:53:13;;;;;;;13.65;7.05;;;;;;;7.22;62.09;101563.13;6202229;23;20035;-75
2021/03/03 00:55:39;;;;;;;11.10;6.65;;;;;;;7.23;62.31;101551.16;6152633;23;20036;-74
2021/03/03 00:58:06;;;;;;;18.10;7.50;;;;;;;7.21;61.82;101548.66;6223276;23;20035;-75
2021/03/03 01:00:33;;;;;;;14.95;7.20;;;;;;;7.20;62.43;101540.72;6227595;23;20059;-75
2021/03/03 01:02:58;;;;;;;8.38;6.38;;;;;;;7.10;61.81;101542.03;6224382;23;20019;-75
2021/03/03 01:05:31;;;;;;;6.20;5.57;;;;;;;7.03;61.81;101552.09;6228860;23;20000;-77
2021/03/03 01:08:04;;;;;;;6.95;5.80;;;;;;;6.95;62.69;101555.03;6199271;23;20000;-75
2021/03/03 01:10:30;;;;;;;9.90;6.07;;;;;;;6.86;62.67;101545.47;6232789;23;20012;-75
2021/03/03 01:12:55;;;;;;;7.15;6.45;;;;;;;6.77;62.58;101536.69;6238686;23;20061;-74
2021/03/03 01:15:21;;;;;;;12.75;6.75;;;;;;;6.74;63.34;101548.84;6209529;23;20056;-75
2021/03/03 01:17:59;;;;;;;;;;;;;;;;;;;;;
2021/03/03 01:20:28;;;;;;;8.32;6.60;;;;;;;6.78;63.25;101549.25;6228358;23;20024;-76
2021/03/03 01:22:58;;;;;;;12.98;8.45;;;;;;;6.69;63.39;101529.63;6192827;23;20017;-79
2021/03/03 01:25:26;;;;;;;17.35;9.40;;;;;;;6.75;63.29;101536.09;6223060;23;19992;-77
2021/03/03 01:27:52;;;;;;;9.52;6.88;;;;;;;6.86;63.32;101553.63;6223809;23;20100;-78
2021/03/03 01:30:20;;;;;;;9.45;5.90;;;;;;;6.90;63.18;101554.88;6203062;23;20005;-76
2021/03/03 01:32:46;;;;;;;12.25;7.85;;;;;;;6.86;63.21;101535.41;6202480;23;20008;-76
2021/03/03 01:35:12;;;;;;;18.58;8.23;;;;;;;6.95;63.29;101552.31;6198333;23;20012;-75
2021/03/03 01:37:38;;;;;;;10.20;7.30;;;;;;;6.97;63.45;101550.25;6199787;23;20015;-75
2021/03/03 01:40:04;;;;;;;7.45;6.07;;;;;;;6.98;63.53;101555.47;6197006;23;20060;-75
2021/03/03 01:42:30;;;;;;;13.15;8.00;;;;;;;6.96;63.43;101534.97;6200398;23;20084;-76
2021/03/03 01:44:55;;;;;;;10.77;6.68;;;;;;;6.98;63.46;101532.88;6224760;23;20016;-72
2021/03/03 01:47:21;;;;;;;11.68;7.50;;;;;;;7.05;63.35;101532.84;6174888;23;20009;-71
2021/03/03 01:49:46;;;;;;;7.57;6.10;;;;;;;7.06;63.08;101539.97;6225983;23;20437;-72
2021/03/03 01:52:14;;;;;;;10.45;6.30;;;;;;;7.05;63.19;101528.22;6225283;23;20000;-72
2021/03/03 01:54:42;;;;;;;7.43;6.03;;;;;;;7.08;62.98;101532.41;6192900;23;20005;-70
2021/03/03 01:57:20;;;;;;;5.65;4.85;;;;;;;7.08;63.00;101527.81;6225909;23;20012;-70
2021/03/03 01:59:45;;;;;;;9.20;7.03;;;;;;;6.99;63.21;101510.91;6228663;23;20074;-76
2021/03/03 02:02:11;;;;;;;9.32;6.30;;;;;;;7.00;63.27;101519.91;6227123;23;20005;-76
2021/03/03 02:04:37;;;;;;;7.25;5.75;;;;;;;7.01;62.91;101521.56;6196952;23;20036;-77
2021/03/03 02:07:16;;;;;;;14.88;8.88;;;;;;;6.84;63.02;101507.59;6200676;23;20036;-75
2021/03/03 02:10:29;;;;;;;9.20;7.22;;;;;;;6.85;63.02;101506.56;6202339;23;20016;-76
2021/03/03 02:13:09;;;;;;;9.27;6.78;;;;;;;6.75;63.32;101507.00;6222288;23;20004;-76
2021/03/03 02:15:37;;;;;;;5.97;4.90;;;;;;;6.67;63.55;101501.81;6226042;22;20083;-76
2021/03/03 02:18:05;;;;;;;12.80;6.72;;;;;;;6.60;63.33;101493.69;6202848;23;20005;-70
2021/03/03 02:20:35;;;;;;;7.57;6.55;;;;;;;6.50;63.75;101476.13;6225066;23;20011;-72
2021/03/03 02:23:13;;;;;;;7.97;6.45;;;;;;;6.51;63.64;101488.69;6224988;23;20401;-72
2021/03/03 02:25:46;;;;;;;15.73;6.57;;;;;;;6.51;63.97;101499.56;6226432;23;20001;-72
2021/03/03 02:28:15;;;;;;;8.73;5.97;;;;;;;6.49;63.87;101498.94;6227510;23;20008;-70
2021/03/03 02:30:43;;;;;;;7.65;5.88;;;;;;;6.46;64.06;101509.16;6194981;23;20008;-70
2021/03/03 02:33:10;;;;;;;9.70;5.63;;;;;;;6.49;64.09;101501.66;6224904;23;20009;-72
2021/03/03 02:35:47;;;;;;;5.72;5.18;;;;;;;6.45;63.97;101490.38;6218978;23;20008;-71
2021/03/03 02:38:13;;;;;;;6.93;5.07;;;;;;;6.51;64.28;101494.13;6198490;23;20012;-71
2021/03/03 02:40:43;;;;;;;6.00;4.95;;;;;;;6.53;64.30;101489.31;6226007;23;20016;-70
2021/03/03 02:43:28;;;;;;;9.13;7.18;;;;;;;6.50;63.98;101473.41;6227431;23;20005;-72
2021/03/03 02:45:54;;;;;;;10.25;6.88;;;;;;;6.57;64.45;101485.09;6200792;23;20004;-72
2021/03/03 02:48:19;;;;;;;20.98;9.73;;;;;;;6.60;64.82;101481.94;6152042;23;20012;-71
2021/03/03 02:50:45;;;;;;;11.50;8.57;;;;;;;6.58;64.70;101474.00;6224950;23;20008;-71
2021/03/03 02:53:12;;;;;;;14.73;9.63;;;;;;;6.65;64.60;101463.13;6225609;23;20004;-71
2021/03/03 02:55:37;;;;;;;21.30;9.10;;;;;;;6.74;64.68;101472.72;6226530;23;20316;-70
2021/03/03 02:58:04;;;;;;;17.75;9.45;;;;;;;6.79;64.64;101470.19;6197649;23;20008;-70
2021/03/03 03:00:37;;;;;;;11.98;7.30;;;;;;;6.85;64.49;101473.09;6220681;23;20021;-69
2021/03/03 03:03:06;;;;;;;18.83;10.57;;;;;;;6.89;64.50;101468.91;6226255;23;20330;-72
2021/03/03 03:05:33;;;;;;;22.48;10.82;;;;;;;6.90;64.54;101468.69;6197087;23;20001;-71
2021/03/03 03:08:12;;;;;;;16.38;8.45;;;;;;;6.97;64.54;101468.66;6173530;23;20085;-72
2021/03/03 03:10:41;;;;;;;17.27;8.93;;;;;;;7.03;64.70;101465.06;6188278;23;20019;-71
2021/03/03 03:13:12;;;;;;;17.52;10.43;;;;;;;6.95;64.34;101441.69;6226377;23;20008;-72
2021/03/03 03:15:43;;;;;;;20.23;10.32;;;;;;;6.96;64.69;101451.50;6222704;22;20012;-72
2021/03/03 03:18:33;;;;;;;22.65;10.38;;;;;;;7.01;64.44;101467.19;6256892;23;20000;-72
2021/03/03 03:21:00;;;;;;;15.38;7.65;;;;;;;6.94;64.66;101471.81;6255558;23;20039;-72
2021/03/03 03:23:27;;;;;;;9.93;7.93;;;;;;;6.95;64.80;101470.75;6253340;23;20079;-73
2021/03/03 03:25:57;;;;;;;13.30;8.57;;;;;;;6.94;64.69;101483.50;6253059;23;20039;-73
2021/03/03 03:28:25;;;;;;;13.50;7.70;;;;;;;6.88;64.81;101469.94;6230714;23;20012;-71
2021/03/03 03:30:51;;;;;;;12.90;7.60;;;;;;;6.93;64.95;101472.84;6253952;23;20026;-71
2021/03/03 03:33:19;;;;;;;7.60;6.38;;;;;;;6.97;64.79;101471.38;6257628;23;20032;-71
2021/03/03 03:35:45;;;;;;;17.52;8.48;;;;;;;6.95;64.71;101468.88;6254107;23;20004;-70
2021/03/03 03:38:11;;;;;;;18.60;9.75;;;;;;;6.99;64.48;101474.69;6256349;23;20058;-71
2021/03/03 03:40:36;;;;;;;12.50;8.18;;;;;;;6.99;64.82;101472.84;6225754;23;20012;-71
2021/03/03 03:43:05;;;;;;;18.83;10.40;;;;;;;6.94;64.91;101471.81;6226510;23;20007;-71
2021/03/03 03:45:35;;;;;;;9.25;7.15;;;;;;;7.00;65.09;101481.81;6232650;23;20011;-70
2021/03/03 03:48:02;;;;;;;11.30;6.55;;;;;;;7.02;65.06;101479.72;6231407;23;20024;-71
2021/03/03 03:50:31;;;;;;;14.65;8.00;;;;;;;7.04;64.95;101479.47;6257443;23;19996;-71
2021/03/03 03:53:06;;;;;;;14.32;8.63;;;;;;;7.07;64.83;101482.63;6258157;23;20000;-75
2021/03/03 03:55:36;;;;;;;11.93;8.20;;;;;;;7.08;64.59;101475.28;6231870;23;20016;-74
2021/03/03 03:58:06;;;;;;;11.15;6.72;;;;;;;6.95;64.69;101458.00;6259225;23;20011;-74
2021/03/03 04:00:33;;;;;;;7.53;5.65;;;;;;;7.07;64.87;101469.03;6259493;23;20008;-74
2021/03/03 04:03:02;;;;;;;14.68;7.85;;;;;;;7.14;64.51;101472.53;6232811;23;20008;-73
2021/03/03 04:05:28;;;;;;;11.30;7.55;;;;;;;7.15;64.66;101479.66;6231233;23;20020;-74
2021/03/03 04:07:54;;;;;;;10.40;6.65;;;;;;;7.14;64.47;101464.38;6228508;23;20008;-73
2021/03/03 04:10:28;;;;;;;10.88;6.55;;;;;;;7.23;64.66;101464.09;6206716;23;20019;-74
2021/03/03 04:12:57;;;;;;;10.90;7.47;;;;;;;7.22;64.44;101467.91;6229688;23;20032;-72
2021/03/03 04:15:24;;;;;;;15.65;9.73;;;;;;;7.27;64.71;101470.78;6257255;22;20023;-75
2021/03/03 04:17:50;;;;;;;15.50;8.07;;;;;;;7.25;64.92;101486.50;6232079;23;20011;-72
2021/03/03 04:20:17;;;;;;;7.45;6.43;;;;;;;7.28;64.40;101483.34;6205437;23;20010;-72
2021/03/03 04:22:43;;;;;;;12.43;7.20;;;;;;;7.28;64.30;101488.78;6255309;23;20031;-73
2021/03/03 04:25:11;;;;;;;5.40;4.95;;;;;;;7.29;64.53;101496.75;6181360;23;20454;-72
2021/03/03 04:27:37;;;;;;;13.73;6.75;;;;;;;7.29;64.64;101507.63;6258584;23;20000;-73
2021/03/03 04:30:08;;;;;;;13.35;7.05;;;;;;;7.25;64.49;101505.56;6258597;23;20015;-72
2021/03/03 04:32:36;;;;;;;7.45;5.22;;;;;;;7.26;64.67;101513.50;6230320;23;20000;-71
2021/03/03 04:35:02;;;;;;;3.75;3.45;;;;;;;7.21;64.69;101504.31;6254939;23;20008;-72
2021/03/03 04:37:30;;;;;;;7.75;4.38;;;;;;;7.22;63.91;101514.16;6231296;23;20008;-74
2021/03/03 04:39:59;;;;;;;6.60;4.40;;;;;;;7.14;64.18;101502.47;6257149;23;20000;-73
2021/03/03 04:42:26;;;;;;;3.58;3.28;;;;;;;7.25;64.68;101513.72;6257913;23;20035;-75
2021/03/03 04:44:52;;;;;;;2.92;2.58;;;;;;;7.24;64.41;101506.59;6206435;23;20026;-74
2021/03/03 04:47:18;;;;;;;6.30;5.32;;;;;;;7.25;64.10;101486.50;6205819;23;20000;-74
2021/03/03 04:49:43;;;;;;;14.00;7.50;;;;;;;7.29;64.47;101490.47;6231451;23;20007;-74
2021/03/03 04:52:09;;;;;;;20.42;9.18;;;;;;;7.26;64.32;101496.34;6205598;23;20008;-73
2021/03/03 04:54:34;;;;;;;8.73;6.93;;;;;;;7.24;64.40;101495.72;6230709;23;20023;-73
2021/03/03 04:57:04;;;;;;;10.23;6.60;;;;;;;7.24;64.71;101493.84;6228163;23;20004;-75
2021/03/03 04:59:30;;;;;;;13.82;8.38;;;;;;;7.21;64.21;101485.28;6257795;23;20086;-74
2021/03/03 05:01:55;;;;;;;16.33;9.15;;;;;;;7.23;64.82;101489.44;6256855;23;20008;-73
2021/03/03 05:04:21;;;;;;;11.57;7.68;;;;;;;7.22;64.40;101509.53;6256663;23;20011;-73
2021/03/03 05:06:46;;;;;;;14.02;7.70;;;;;;;7.18;64.01;101510.19;6256126;23;20020;-73
2021/03/03 05:09:18;;;;;;;7.75;5.63;;;;;;;7.12;64.59;101490.94;6255157;23;20004;-73
2021/03/03 05:11:43;;;;;;;8.65;6.25;;;;;;;7.12;64.52;101496.41;6255196;23;20092;-73
2021/03/03 05:14:09;;;;;;;6.60;5.95;;;;;;;7.14;64.31;101483.44;6247607;22;20021;-74
2021/03/03 05:16:34;;;;;;;10.85;6.78;;;;;;;7.13;64.58;101483.66;6199535;23;20004;-74
2021/03/03 05:19:01;;;;;;;16.58;8.90;;;;;;;7.09;64.95;101475.06;6200306;23;20422;-73
2021/03/03 05:21:26;;;;;;;15.82;7.68;;;;;;;7.02;65.08;101468.00;6224808;23;20419;-74
2021/03/03 05:23:54;;;;;;;13.15;7.40;;;;;;;7.01;64.92;101478.06;6176200;23;20025;-74
2021/03/03 05:26:23;;;;;;;9.07;6.88;;;;;;;7.02;65.09;101474.25;6195705;23;20034;-75
2021/03/03 05:28:50;;;;;;;10.25;6.95;;;;;;;6.99;64.72;101489.16;6199115;23;20013;-75
2021/03/03 05:31:16;;;;;;;7.20;6.32;;;;;;;6.89;65.21;101469.75;6198441;23;20016;-75
2021/03/03 05:33:43;;;;;;;9.82;6.68;;;;;;;6.96;65.15;101475.13;6196154;23;20008;-78
2021/03/03 05:36:09;;;;;;;10.63;7.18;;;;;;;6.96;64.76;101465.09;6227980;23;20064;-76
2021/03/03 05:38:39;;;;;;;15.10;7.82;;;;;;;6.97;65.10;101468.66;6224616;23;20011;-73
2021/03/03 05:41:07;;;;;;;13.88;8.25;;;;;;;6.95;65.04;101454.44;6225511;23;20011;-74
2021/03/03 05:43:34;;;;;;;9.68;7.30;;;;;;;6.94;65.34;101447.34;6226365;23;20077;-74
2021/03/03 05:46:03;;;;;;;9.85;7.18;;;;;;;7.04;65.13;101444.13;6215488;23;20036;-75
2021/03/03 05:48:43;;;;;;;18.13;9.75;;;;;;;7.00;65.08;101435.59;6226791;23;20011;-75
2021/03/03 05:51:10;;;;;;;14.63;8.43;;;;;;;6.98;65.01;101429.53;6200195;23;20001;-75
2021/03/03 05:53:37;;;;;;;15.75;8.63;;;;;;;7.11;65.14;101426.75;6225835;23;20067;-75
2021/03/03 05:56:07;;;;;;;21.05;11.10;;;;;;;7.05;65.14;101414.00;6176054;23;20063;-76
2021/03/03 05:58:38;;;;;;;24.92;13.50;;;;;;;7.04;65.29;101411.50;6226453;23;20067;-73
2021/03/03 06:01:17;;;;;;;30.00;14.20;;;;;;;6.98;65.38;101391.47;6200756;23;20009;-73
2021/03/03 06:03:43;;;;;;;29.23;12.90;;;;;;;6.94;65.98;101395.66;6201104;23;20011;-73
2021/03/03 06:06:09;;;;;;;27.10;12.57;;;;;;;6.89;65.40;101398.19;6199095;23;20016;-71
2021/03/03 06:08:50;;;;;;;34.08;15.63;;;;;;;7.07;65.60;101435.56;6200114;23;20008;-70
2021/03/03 06:11:20;;;;;;;39.20;16.90;;;;;;;6.99;65.75;101431.19;6226291;23;20011;-72
2021/03/03 06:13:47;;;;;;;27.13;12.82;;;;;;;6.94;65.85;101415.53;6220282;22;20016;-70
2021/03/03 06:16:16;;;;;;;18.13;11.25;;;;;;;6.95;65.74;101421.78;6257774;23;20028;-71
2021/03/03 06:18:44;;;;;;;20.00;10.18;;;;;;;6.99;66.04;101414.88;6252011;23;20041;-71
2021/03/03 06:21:39;;;;;;;33.45;14.88;;;;;;;7.05;65.39;101419.44;6258948;23;20066;-73
2021/03/03 06:24:09;;;;;;;35.17;13.85;;;;;;;7.03;66.04;101421.56;6257670;23;20008;-71
2021/03/03 06:26:56;;;;;;;25.52;12.43;;;;;;;6.93;65.84;101416.56;6252577;23;20000;-72
2021/03/03 06:29:24;;;;;;;23.30;11.13;;;;;;;7.04;65.97;101434.09;6253347;23;20004;-70
2021/03/03 06:31:50;;;;;;;25.70;11.32;;;;;;;7.01;65.67;101450.00;6258012;23;20054;-72
2021/03/03 06:34:18;;;;;;;26.85;12.18;;;;;;;6.95;65.64;101466.16;6252353;23;20027;-72
2021/03/03 06:36:46;;;;;;;16.58;8.27;;;;;;;6.87;65.89;101471.00;6228093;23;20099;-71
2021/03/03 06:39:25;;;;;;;27.38;11.45;;;;;;;6.67;66.34;101461.03;6255071;23;20042;-71
2021/03/03 06:41:54;;;;;;;18.55;9.10;;;;;;;6.69;66.32;101469.81;6253329;23;20001;-71
2021/03/03 06:44:20;;;;;;;13.57;7.95;;;;;;;6.68;65.86;101468.13;6255405;23;20015;-71
2021/03/03 06:47:05;;;;;;;7.10;4.88;;;;;;;6.72;66.25;101457.69;6227361;23;20414;-72
2021/03/03 06:49:33;;;;;;;16.75;9.75;;;;;;;6.68;66.20;101453.72;6228086;23;20407;-71
2021/03/03 06:51:59;;;;;;;17.27;8.73;;;;;;;6.66;66.19;101453.09;6256310;23;20055;-71
2021/03/03 06:54:32;;;;;;;23.05;10.50;;;;;;;6.64;66.49;101458.75;6255444;23;20396;-72
2021/03/03 06:57:12;;;;;;;31.10;14.77;;;;;;;6.55;66.37;101463.56;6254097;23;20024;-71
2021/03/03 06:59:45;;;;;;;15.88;9.27;;;;;;;6.51;66.80;101473.19;6253192;23;20411;-70
2021/03/03 07:02:12;;;;;;;8.35;5.60;;;;;;;6.47;66.75;101466.53;6254913;23;20003;-73
2021/03/03 07:04:39;;;;;;;10.75;6.40;;;;;;;6.46;67.17;101462.16;6257296;23;20012;-72
2021/03/03 07:07:16;;;;;;;11.57;7.13;;;;;;;6.43;66.93;101459.88;6255207;23;20000;-72
2021/03/03 07:09:59;;;;;;;6.65;5.38;;;;;;;6.42;66.94;101464.44;6251884;23;20027;-72
2021/03/03 07:12:31;;;;;;;7.03;4.88;;;;;;;6.49;66.70;101469.03;6252533;23;20035;-73
2021/03/03 07:15:00;;;;;;;7.57;4.35;;;;;;;6.50;66.74;101470.69;6257942;22;20043;-73
2021/03/03 07:17:41;;;;;;;6.10;4.65;;;;;;;6.57;66.71;101466.06;6253465;23;20000;-72
2021/03/03 07:20:08;;;;;;;19.00;9.02;;;;;;;6.49;66.84;101463.63;6255943;23;20004;-72
2021/03/03 07:22:43;;;;;;;11.27;7.85;;;;;;;6.58;66.86;101484.06;6228366;23;20004;-73
2021/03/03 07:25:14;;;;;;;13.00;7.28;;;;;;;6.58;66.79;101478.63;6230396;23;20000;-73
2021/03/03 07:27:44;;;;;;;9.32;5.72;;;;;;;6.52;66.75;101463.19;6229693;23;20008;-72
2021/03/03 07:30:38;;;;;;;5.07;4.38;;;;;;;6.61;66.76;101472.75;6254728;23;20043;-76
2021/03/03 07:33:06;;;;;;;7.82;5.72;;;;;;;6.74;66.96;101499.06;6259404;23;19996;-72
2021/03/03 07:35:35;;;;;;;9.60;6.38;;;;;;;6.59;66.71;101474.88;6261354;23;20039;-71
2021/03/03 07:38:04;;;;;;;8.05;4.70;;;;;;;6.76;66.60;101505.97;6258195;23;20030;-72
2021/03/03 07:40:33;;;;;;;8.25;4.38;;;;;;;6.70;66.44;101498.69;6236425;23;20008;-73
2021/03/03 07:43:01;;;;;;;7.30;5.22;;;;;;;6.78;66.62;101508.47;6232016;23;20011;-73
2021/03/03 07:45:49;;;;;;;4.57;3.97;;;;;;;6.78;66.25;101506.59;6262118;23;20031;-73
2021/03/03 07:48:15;;;;;;;5.07;3.63;;;;;;;6.92;66.24;101506.53;6259240;23;20039;-71
2021/03/03 07:50:41;;;;;;;2.75;2.55;;;;;;;7.15;66.43;101512.31;6234197;23;20008;-72
2021/03/03 07:53:08;;;;;;;2.78;2.25;;;;;;;7.33;65.88;101497.97;6255089;23;20000;-69
2021/03/03 07:55:34;;;;;;;5.90;3.35;;;;;;;7.55;66.00;101515.84;6233293;23;20008;-68
2021/03/03 07:58:03;;;;;;;3.90;2.25;;;;;;;7.78;64.95;101512.53;6254236;23;20011;-73
2021/03/03 08:00:37;;;;;;;2.13;1.92;;;;;;;7.96;65.56;101515.34;6261049;23;20026;-72
2021/03/03 08:03:08;;;;;;;2.22;2.05;;;;;;;8.11;65.25;101535.97;6255999;23;20007;-69
2021/03/03 08:05:36;;;;;;;4.68;3.90;;;;;;;8.13;64.85;101537.44;6225765;23;20012;-72
2021/03/03 08:08:36;;;;;;;7.13;4.30;;;;;;;8.08;64.89;101510.00;6257620;23;20071;-72
2021/03/03 08:11:01;;;;;;;4.10;3.70;;;;;;;8.21;64.11;101519.97;6254987;23;20015;-72
2021/03/03 08:13:42;;;;;;;3.97;3.58;;;;;;;8.30;64.15;101515.88;6251786;23;20000;-70
2021/03/03 08:16:08;;;;;;;3.22;2.92;;;;;;;8.47;63.82;101516.19;6251403;22;20039;-70
2021/03/03 08:18:35;;;;;;;9.63;6.85;;;;;;;8.55;63.93;101504.97;6256715;23;20011;-73
2021/03/03 08:21:01;;;;;;;9.45;7.65;;;;;;;8.59;64.32;101515.44;6226982;23;20015;-73
2021/03/03 08:23:37;;;;;;;9.75;7.57;;;;;;;8.65;63.60;101537.16;6250927;23;20017;-73
2021/03/03 08:26:15;;;;;;;13.88;10.25;;;;;;;8.62;64.34;101534.06;6224492;23;20423;-73
2021/03/03 08:28:42;;;;;;;9.20;7.38;;;;;;;8.76;64.91;101524.69;6230228;23;20004;-72
2021/03/03 08:31:13;;;;;;;11.07;6.53;;;;;;;9.22;64.28;101530.63;6252913;23;20000;-70
2021/03/03 08:33:46;;;;;;;5.95;5.30;;;;;;;9.47;63.94;101519.56;6255956;23;20031;-71
2021/03/03 08:36:32;;;;;;;10.55;6.82;;;;;;;10.10;64.26;101512.72;6246411;23;20000;-70
2021/03/03 08:38:57;;;;;;;7.72;6.63;;;;;;;10.87;63.48;101508.19;6227536;23;20087;-70
2021/03/03 08:41:25;;;;;;;5.82;5.18;;;;;;;11.51;62.30;101518.19;6223383;23;20008;-73
2021/03/03 08:44:05;;;;;;;8.48;6.78;;;;;;;11.89;60.91;101513.94;6230017;23;20060;-69
2021/03/03 08:46:30;;;;;;;11.00;8.80;;;;;;;12.01;59.37;101522.94;6248838;23;20000;-71
2021/03/03 08:48:55;;;;;;;8.70;7.75;;;;;;;12.01;59.06;101514.72;6256175;23;20014;-71
2021/03/03 08:51:29;;;;;;;7.03;6.32;;;;;;;11.95;58.84;101515.72;6228773;23;20027;-72
2021/03/03 08:54:01;;;;;;;5.95;5.43;;;;;;;11.79;58.94;101508.28;6253131;23;20007;-71
2021/03/03 08:56:45;;;;;;;5.68;5.18;;;;;;;11.68;58.27;101508.09;6247895;23;20004;-72
2021/03/03 08:59:29;;;;;;;5.53;5.13;;;;;;;11.55;58.42;101516.63;6254660;23;20004;-72
2021/03/03 09:02:08;;;;;;;5.50;5.10;;;;;;;11.41;58.53;101518.00;6228021;23;20015;-70
2021/03/03 09:04:48;;;;;;;4.85;4.45;;;;;;;11.39;58.79;101511.94;6254491;23;20007;-71
2021/03/03 09:07:46;;;;;;;11.50;8.40;;;;;;;11.51;58.94;101513.53;6221657;23;19998;-72
2021/03/03 09:10:18;;;;;;;9.60;7.32;;;;;;;11.92;58.94;101520.84;6207306;23;20043;-70
2021/03/03 09:12:45;;;;;;;7.93;6.70;;;;;;;12.21;58.19;101511.47;6253296;23;20023;-71
2021/03/03 09:15:16;;;;;;;10.60;7.03;;;;;;;12.32;57.37;101501.47;6251667;22;20395;-71
2021/03/03 09:17:45;;;;;;;9.68;7.30;;;;;;;12.40;56.97;101508.47;6252431;23;20008;-72
2021/03/03 09:20:20;;;;;;;14.43;9.70;;;;;;;12.34;56.68;101499.31;6226053;23;20047;-70
2021/03/03 09:22:47;;;;;;;10.20;8.95;;;;;;;12.15;56.78;101506.13;6227253;23;20008;-71
2021/03/03 09:25:17;;;;;;;7.25;6.50;;;;;;;12.02;56.79;101486.22;6279284;22;20008;-72
2021/03/03 09:27:53;;;;;;;21.92;12.85;;;;;;;12.03;56.56;101489.78;6227892;23;20079;-72
2021/03/03 09:30:21;;;;;;;15.13;10.57;;;;;;;11.90;56.53;101488.19;6229122;23;20012;-70
2021/03/03 09:32:47;;;;;;;18.08;11.20;;;;;;;11.94;56.49;101480.31;6227586;23;20078;-73
2021/03/03 09:35:14;;;;;;;8.45;6.25;;;;;;;11.96;56.49;101478.16;6251065;23;20008;-72
2021/03/03 09:37:41;;;;;;;15.38;10.90;;;;;;;11.92;56.08;101475.06;6253077;23;20537;-72
2021/03/03 09:40:10;;;;;;;15.68;10.48;;;;;;;11.80;56.60;101482.56;6226955;23;20012;-74
2021/03/03 09:42:48;;;;;;;9.45;8.38;;;;;;;11.90;57.11;101477.25;6254688;23;20004;-72
2021/03/03 09:45:19;;;;;;;6.97;6.18;;;;;;;12.07;57.04;101481.91;6248743;23;20016;-72
2021/03/03 09:47:48;;;;;;;10.63;8.68;;;;;;;12.15;56.25;101489.69;6224467;23;20076;-70
2021/03/03 09:50:21;;;;;;;14.98;11.52;;;;;;;12.20;56.56;101492.53;6256305;23;20050;-70
2021/03/03 09:52:49;;;;;;;8.77;7.43;;;;;;;12.25;56.67;101478.06;6257770;23;20007;-71
2021/03/03 09:55:17;;;;;;;6.38;5.75;;;;;;;12.60;56.08;101496.97;6253450;23;20006;-72
2021/03/03 09:57:51;;;;;;;17.10;8.85;;;;;;;12.82;56.39;101479.66;6256272;23;20004;-70
2021/03/03 10:00:19;;;;;;;9.18;7.03;;;;;;;13.68;57.16;101495.47;6204830;23;20038;-72
2021/03/03 10:02:48;;;;;;;8.93;7.97;;;;;;;15.12;56.31;101499.13;6255135;23;20000;-72
2021/03/03 10:05:18;;;;;;;7.45;6.80;;;;;;;15.94;53.90;101490.19;6227303;23;20031;-73
2021/03/03 10:07:49;;;;;;;14.65;9.82;;;;;;;16.63;52.99;101489.78;6254434;23;20079;-72
2021/03/03 10:10:17;;;;;;;9.52;7.95;;;;;;;17.15;51.74;101501.50;6257048;23;19996;-73
2021/03/03 10:12:43;;;;;;;13.02;8.13;;;;;;;17.69;50.31;101499.78;6254063;23;20026;-72
2021/03/03 10:15:11;;;;;;;9.35;7.35;;;;;;;17.98;49.14;101502.63;6228824;23;20399;-72
2021/03/03 10:17:47;;;;;;;15.57;12.05;;;;;;;18.56;48.89;101512.88;6252099;23;20040;-72
2021/03/03 10:20:33;;;;;;;9.20;8.27;;;;;;;19.51;48.21;101506.69;6226485;23;20004;-71
2021/03/03 10:23:11;;;;;;;11.38;10.15;;;;;;;20.12;46.49;101491.03;6255676;23;20026;-71
2021/03/03 10:25:45;;;;;;;13.95;11.77;;;;;;;21.19;45.56;101500.34;6228995;23;20007;-72
2021/03/03 10:28:17;;;;;;;10.05;9.02;;;;;;;21.87;43.67;101503.22;6251492;23;20007;-73
2021/03/03 10:30:55;;;;;;;10.15;7.43;;;;;;;21.89;42.47;101489.78;6255707;23;20008;-72
2021/03/03 10:33:36;;;;;;;12.57;9.25;;;;;;;22.17;42.11;101500.78;6250742;23;19996;-71
2021/03/03 10:36:32;;;;;;;9.65;8.68;;;;;;;21.83;41.80;101485.50;6255506;23;20008;-70
2021/03/03 10:39:00;;;;;;;16.08;10.65;;;;;;;21.45;41.32;101493.03;6247063;23;20008;-72
2021/03/03 10:41:31;;;;;;;6.88;6.20;;;;;;;21.12;41.73;101488.81;6225699;23;20096;-73
2021/03/03 10:43:57;;;;;;;7.65;7.15;;;;;;;20.98;41.50;101489.63;6257228;23;20059;-71
2021/03/03 10:46:30;;;;;;;7.05;6.45;;;;;;;21.38;41.96;101475.97;6228089;23;20008;-74
2021/03/03 10:49:11;;;;;;;7.60;6.80;;;;;;;21.52;41.15;101477.91;6231029;23;20004;-72
2021/03/03 10:51:38;;;;;;;5.55;5.15;;;;;;;21.26;40.37;101489.56;6228884;23;20008;-71
2021/03/03 10:54:08;;;;;;;8.05;7.32;;;;;;;20.79;40.71;101491.72;6256050;23;20011;-73
2021/03/03 10:56:40;;;;;;;18.90;11.93;;;;;;;20.36;41.04;101499.19;6226185;23;20003;-71
2021/03/03 10:59:25;;;;;;;6.20;5.55;;;;;;;19.93;41.54;101488.31;6229697;23;20011;-73
2021/03/03 11:02:00;;;;;;;6.10;5.20;;;;;;;19.53;41.21;101493.34;6228651;23;20086;-70
2021/03/03 11:04:46;;;;;;;8.15;5.45;;;;;;;19.14;41.57;101483.34;6254115;23;20027;-72
2021/03/03 11:07:14;;;;;;;10.82;7.97;;;;;;;18.90;41.91;101492.53;6254395;23;20035;-70
2021/03/03 11:09:40;;;;;;;12.48;9.93;;;;;;;18.81;42.66;101491.53;6258085;23;20000;-72
2021/03/03 11:12:07;;;;;;;7.93;7.25;;;;;;;18.82;42.78;101493.16;6253999;23;20518;-72
2021/03/03 11:14:34;;;;;;;8.50;7.80;;;;;;;18.79;42.35;101488.22;6256079;22;20012;-72
2021/03/03 11:17:01;;;;;;;5.88;5.55;;;;;;;18.76;42.78;101494.34;6227248;23;20039;-73
2021/03/03 11:19:45;;;;;;;8.50;6.30;;;;;;;18.80;42.47;101489.88;6256193;23;20026;-73
2021/03/03 11:22:10;;;;;;;5.90;5.50;;;;;;;18.61;43.01;101487.84;6229769;23;20423;-72
2021/03/03 11:24:36;;;;;;;12.02;9.30;;;;;;;18.47;42.64;101492.44;6255964;23;20063;-72
2021/03/03 11:27:01;;;;;;;17.40;12.35;;;;;;;18.23;42.89;101490.47;6228913;23;20059;-72
2021/03/03 11:29:27;;;;;;;10.73;8.63;;;;;;;18.06;43.11;101481.78;6255559;23;20008;-72
2021/03/03 11:31:52;;;;;;;8.98;8.18;;;;;;;17.92;43.25;101484.41;6226073;23;20019;-73
2021/03/03 11:34:18;;;;;;;8.95;7.97;;;;;;;17.71;43.39;101480.94;6230607;23;20336;-69
2021/03/03 11:36:43;;;;;;;6.65;6.20;;;;;;;17.50;43.73;101475.56;6226243;23;20008;-71
2021/03/03 11:39:13;;;;;;;6.65;4.55;;;;;;;17.33;43.98;101469.59;6205452;23;20015;-72
2021/03/03 11:41:39;;;;;;;5.22;4.93;;;;;;;17.19;44.53;101470.25;6254812;23;20008;-73
2021/03/03 11:44:05;;;;;;;14.40;9.40;;;;;;;17.05;44.58;101458.16;6231399;23;20015;-72